KSFF/SFF METAR and TAF weather

Enter ICAO airport designator
Station Type Date Time Source
KSFF METAR 2018/12/11 19:53 UTC NOAA

KSFF 111953Z 15007KT 3SM -RA BR OVC010 02/00 A2996 RMK AO2 SLP160 P0002 T00220000


Station Type Date Time Source
KSFF Decoded METAR 2018/12/11 19:53 UTC NOAA

FELTS FIELD, WA, United States (KSFF) 47-41N 117-19W 609M
Dec 11, 2018 - 02:53 PM EST / 2018.12.11 1953 UTC
Wind: from the SSE (150 degrees) at 8 MPH (7 KT):0
Visibility: 3 mile(s):0
Sky conditions: overcast
Weather: light rain; mist
Precipitation last hour: 0.02 inches
Temperature: 36.0 F (2.2 C)
Dew Point: 32.0 F (0.0 C)
Relative Humidity: 85%
Pressure (altimeter): 29.96 in. Hg (1014 hPa)
ob: KSFF 111953Z 15007KT 3SM -RA BR OVC010 02/00 A2996 RMK AO2 SLP160 P0002 T00220000
cycle: 20

Station Type Date Time Source
KSFF TAF 2018/12/11 18:40 UTC NOAA

TAF KSFF 111738Z 1118/1218 15005KT 6SM -RA BR BKN015 OVC025
FM112100 20012KT P6SM -RA OVC020
FM120600 20004KT 3SM BR VCSH OVC011
FM121000 VRB03KT 3SM BR OVC008 WS020/25030KT


Example: see airport list